createdAt,value
2022-11-25T00:00:12.201Z,134.12
2022-11-25T00:01:12.203Z,127.06
2022-11-25T00:02:12.227Z,96
2022-11-25T00:03:12.238Z,111.53
2022-11-25T00:04:12.204Z,112.94
2022-11-25T00:05:12.207Z,70.59
2022-11-25T00:06:12.216Z,80.47
2022-11-25T00:07:12.233Z,94.59
2022-11-25T00:08:12.211Z,88.94
2022-11-25T00:09:12.231Z,66.35
2022-11-25T00:10:12.210Z,59.29
2022-11-25T00:11:12.210Z,59.29
2022-11-25T00:12:12.208Z,59.29
2022-11-25T00:13:12.211Z,59.29
2022-11-25T00:14:12.209Z,59.29
2022-11-25T00:15:12.205Z,59.29
2022-11-25T00:16:12.287Z,59.29
2022-11-25T00:17:12.212Z,59.29
2022-11-25T00:18:12.212Z,59.29
2022-11-25T00:19:12.210Z,59.29
2022-11-25T00:20:12.212Z,59.29
2022-11-25T00:21:12.217Z,59.29
2022-11-25T00:22:12.218Z,59.29
2022-11-25T00:23:12.204Z,59.29
2022-11-25T00:24:12.216Z,59.29
2022-11-25T00:25:12.253Z,59.29
2022-11-25T00:26:12.211Z,59.29
2022-11-25T00:27:12.218Z,59.29
2022-11-25T00:28:12.212Z,59.29
2022-11-25T00:29:12.209Z,59.29
2022-11-25T00:30:12.217Z,59.29
2022-11-25T00:31:12.302Z,59.29
2022-11-25T00:32:12.275Z,59.29
2022-11-25T00:33:12.216Z,59.29
2022-11-25T00:34:12.208Z,59.29
2022-11-25T00:35:12.228Z,59.29
2022-11-25T00:36:12.212Z,59.29
2022-11-25T00:37:12.215Z,59.29
2022-11-25T00:38:12.213Z,59.29
2022-11-25T00:39:12.218Z,59.29
2022-11-25T00:40:12.215Z,59.29
2022-11-25T00:41:12.236Z,59.29
2022-11-25T00:42:12.223Z,59.29
2022-11-25T00:43:12.216Z,59.29
2022-11-25T00:44:12.213Z,59.29
2022-11-25T00:45:12.215Z,59.29
2022-11-25T00:46:12.249Z,59.29
2022-11-25T00:47:12.229Z,59.29
2022-11-25T00:48:12.215Z,59.29
2022-11-25T00:49:12.210Z,59.29
2022-11-25T00:50:12.223Z,59.29
2022-11-25T00:51:12.225Z,59.29
2022-11-25T00:52:12.222Z,59.29
2022-11-25T00:53:12.227Z,59.29
2022-11-25T00:54:12.226Z,59.29
2022-11-25T00:55:12.234Z,59.29
2022-11-25T00:56:12.227Z,59.29
2022-11-25T00:57:12.256Z,59.29
2022-11-25T00:58:12.223Z,59.29
2022-11-25T00:59:12.235Z,59.29
2022-11-25T01:00:12.234Z,59.29
2022-11-25T01:01:12.305Z,59.29
2022-11-25T01:02:12.319Z,59.29
2022-11-25T01:03:12.240Z,59.29
2022-11-25T01:04:12.233Z,59.29
2022-11-25T01:05:12.243Z,59.29
2022-11-25T01:06:12.235Z,59.29
2022-11-25T01:07:12.287Z,59.29
2022-11-25T01:08:12.244Z,59.29
2022-11-25T01:09:12.239Z,59.29
2022-11-25T01:10:12.234Z,59.29
2022-11-25T01:11:12.238Z,59.29
2022-11-25T01:12:12.238Z,59.29
2022-11-25T01:13:12.262Z,59.29
2022-11-25T01:14:12.238Z,59.29
2022-11-25T01:15:12.239Z,59.29
2022-11-25T01:16:12.339Z,59.29
2022-11-25T01:17:12.252Z,59.29
2022-11-25T01:18:12.258Z,59.29
2022-11-25T01:19:12.256Z,59.29
2022-11-25T01:20:12.253Z,59.29
2022-11-25T01:21:12.260Z,59.29
2022-11-25T01:22:12.251Z,59.29
2022-11-25T01:23:12.250Z,59.29
2022-11-25T01:24:12.271Z,59.29
2022-11-25T01:25:12.254Z,59.29
2022-11-25T01:26:12.265Z,59.29
2022-11-25T01:27:12.270Z,59.29
2022-11-25T01:28:12.259Z,59.29
2022-11-25T01:29:12.290Z,59.29
2022-11-25T01:30:12.271Z,59.29
2022-11-25T01:31:12.283Z,59.29
2022-11-25T01:32:12.267Z,59.29
2022-11-25T01:33:12.268Z,59.29
2022-11-25T01:34:12.267Z,59.29
2022-11-25T01:35:12.267Z,59.29
2022-11-25T01:36:12.263Z,96
2022-11-25T01:37:12.264Z,110.12
2022-11-25T01:38:12.280Z,96
2022-11-25T01:39:12.277Z,96
2022-11-25T01:40:12.269Z,96
2022-11-25T01:41:12.278Z,96
2022-11-25T01:42:12.273Z,96
2022-11-25T01:43:12.273Z,105.88
2022-11-25T01:44:12.272Z,100.24
2022-11-25T01:45:12.307Z,100.24
2022-11-25T01:46:12.288Z,100.24
2022-11-25T01:47:12.278Z,100.24
2022-11-25T01:48:12.294Z,100.24
2022-11-25T01:49:12.277Z,100.24
2022-11-25T01:50:12.354Z,100.24
2022-11-25T01:51:12.282Z,100.24
2022-11-25T01:52:12.360Z,100.24
2022-11-25T01:53:12.283Z,100.24
2022-11-25T01:54:12.358Z,100.24
2022-11-25T01:55:12.289Z,100.24
2022-11-25T01:56:12.292Z,100.24
2022-11-25T01:57:12.301Z,100.24
2022-11-25T01:58:12.295Z,100.24
2022-11-25T01:59:12.369Z,100.24
2022-11-25T02:00:12.289Z,100.24
2022-11-25T02:01:12.482Z,100.24
2022-11-25T02:02:12.428Z,100.24
2022-11-25T02:03:12.366Z,100.24
2022-11-25T02:04:12.371Z,100.24
2022-11-25T02:05:12.303Z,100.24
2022-11-25T02:06:12.306Z,100.24
2022-11-25T02:07:12.476Z,100.24
2022-11-25T02:08:12.315Z,100.24
2022-11-25T02:09:12.317Z,100.24
2022-11-25T02:10:12.374Z,100.24
2022-11-25T02:11:12.312Z,100.24
2022-11-25T02:12:12.312Z,100.24
2022-11-25T02:13:12.381Z,100.24
2022-11-25T02:14:12.322Z,100.24
2022-11-25T02:15:12.386Z,100.24
2022-11-25T02:16:12.480Z,100.24
2022-11-25T02:17:12.412Z,100.24
2022-11-25T02:18:12.395Z,100.24
2022-11-25T02:19:12.386Z,100.24
2022-11-25T02:20:12.406Z,100.24
2022-11-25T02:21:12.325Z,100.24
2022-11-25T02:22:12.376Z,100.24
2022-11-25T02:23:12.342Z,100.24
2022-11-25T02:24:12.340Z,100.24
2022-11-25T02:25:12.336Z,100.24
2022-11-25T02:26:12.383Z,100.24
2022-11-25T02:27:12.351Z,100.24
2022-11-25T02:28:12.409Z,100.24
2022-11-25T02:29:12.395Z,100.24
2022-11-25T02:30:12.400Z,100.24
2022-11-25T02:31:12.403Z,100.24
2022-11-25T02:32:12.349Z,100.24
2022-11-25T02:33:12.420Z,100.24
2022-11-25T02:34:12.331Z,100.24
2022-11-25T02:35:12.334Z,100.24
2022-11-25T02:36:12.335Z,100.24
2022-11-25T02:37:12.345Z,100.24
2022-11-25T02:38:12.339Z,100.24
2022-11-25T02:39:12.344Z,100.24
2022-11-25T02:40:12.342Z,100.24
2022-11-25T02:41:12.344Z,100.24
2022-11-25T02:42:12.339Z,100.24
2022-11-25T02:43:12.351Z,100.24
2022-11-25T02:44:12.342Z,100.24
2022-11-25T02:45:12.342Z,100.24
2022-11-25T02:46:15.106Z,100.24
2022-11-25T02:47:12.353Z,100.24
2022-11-25T02:48:12.361Z,100.24
2022-11-25T02:49:12.372Z,100.24
2022-11-25T02:50:12.345Z,120
2022-11-25T02:51:12.357Z,131.29
2022-11-25T02:52:12.352Z,172.24
2022-11-25T02:53:12.358Z,138.35
2022-11-25T02:54:12.355Z,127.06
2022-11-25T02:55:12.365Z,127.06
2022-11-25T02:56:12.368Z,127.06
2022-11-25T02:57:12.356Z,127.06
2022-11-25T02:58:12.350Z,127.06
2022-11-25T02:59:12.364Z,127.06
2022-11-25T03:00:12.362Z,127.06
2022-11-25T03:01:12.437Z,127.06
2022-11-25T03:02:12.427Z,127.06
2022-11-25T03:03:12.370Z,127.06
2022-11-25T03:04:12.373Z,127.06
2022-11-25T03:05:12.389Z,127.06
2022-11-25T03:06:12.359Z,127.06
2022-11-25T03:07:12.405Z,127.06
2022-11-25T03:08:12.371Z,127.06
2022-11-25T03:09:12.360Z,127.06
2022-11-25T03:10:12.378Z,127.06
2022-11-25T03:11:12.366Z,127.06
2022-11-25T03:12:12.365Z,127.06
2022-11-25T03:13:12.370Z,127.06
2022-11-25T03:14:12.379Z,127.06
2022-11-25T03:15:12.374Z,127.06
2022-11-25T03:16:12.418Z,127.06
2022-11-25T03:17:12.385Z,127.06
2022-11-25T03:18:12.380Z,127.06
2022-11-25T03:19:12.377Z,127.06
2022-11-25T03:20:12.385Z,127.06
2022-11-25T03:21:12.406Z,127.06
2022-11-25T03:22:12.384Z,127.06
2022-11-25T03:23:12.379Z,127.06
2022-11-25T03:24:12.375Z,127.06
2022-11-25T03:25:12.425Z,127.06
2022-11-25T03:26:12.384Z,127.06
2022-11-25T03:27:12.388Z,127.06
2022-11-25T03:28:12.391Z,127.06
2022-11-25T03:29:12.390Z,127.06
2022-11-25T03:30:12.398Z,127.06
2022-11-25T03:31:12.418Z,127.06
2022-11-25T03:32:12.432Z,127.06
2022-11-25T03:33:12.394Z,127.06
2022-11-25T03:34:12.404Z,183.53
2022-11-25T03:35:12.399Z,190.59
2022-11-25T03:36:12.399Z,148.24
2022-11-25T03:37:12.496Z,158.12
2022-11-25T03:38:12.395Z,146.82
2022-11-25T03:39:12.398Z,173.65
2022-11-25T03:40:12.395Z,148.24
2022-11-25T03:41:12.400Z,148.24
2022-11-25T03:42:12.405Z,148.24
2022-11-25T03:43:12.405Z,201.88
2022-11-25T03:44:12.410Z,175.06
2022-11-25T03:45:12.401Z,153.88
2022-11-25T03:46:12.468Z,124.24
2022-11-25T03:47:12.411Z,124.24
2022-11-25T03:48:12.408Z,124.24
2022-11-25T03:49:12.407Z,124.24
2022-11-25T03:50:12.408Z,124.24
2022-11-25T03:51:12.419Z,124.24
2022-11-25T03:52:12.410Z,124.24
2022-11-25T03:53:12.440Z,127.06
2022-11-25T03:54:12.415Z,141.18
2022-11-25T03:55:12.432Z,131.29
2022-11-25T03:56:12.414Z,124.24
2022-11-25T03:57:12.421Z,151.06
2022-11-25T03:58:12.420Z,141.18
2022-11-25T03:59:12.423Z,146.82
2022-11-25T04:00:12.432Z,166.59
2022-11-25T04:01:12.444Z,179.29
2022-11-25T04:02:12.477Z,179.29
2022-11-25T04:03:12.432Z,168
2022-11-25T04:04:12.427Z,139.76
2022-11-25T04:05:12.424Z,139.76
2022-11-25T04:06:12.414Z,139.76
2022-11-25T04:07:12.496Z,139.76
2022-11-25T04:08:12.424Z,139.76
2022-11-25T04:09:12.450Z,139.76
2022-11-25T04:10:12.433Z,139.76
2022-11-25T04:11:12.432Z,115.76
2022-11-25T04:12:12.430Z,145.41
2022-11-25T04:13:12.426Z,124.24
2022-11-25T04:14:12.435Z,128.47
2022-11-25T04:15:12.427Z,138.35
2022-11-25T04:16:12.436Z,124.24
2022-11-25T04:17:12.442Z,139.76
2022-11-25T04:18:12.428Z,131.29
2022-11-25T04:19:12.441Z,115.76
2022-11-25T04:20:12.443Z,115.76
2022-11-25T04:21:12.460Z,115.76
2022-11-25T04:22:12.445Z,115.76
2022-11-25T04:23:12.443Z,115.76
2022-11-25T04:24:12.444Z,115.76
2022-11-25T04:25:12.465Z,115.76
2022-11-25T04:26:12.443Z,117.18
2022-11-25T04:27:12.443Z,111.53
2022-11-25T04:28:12.438Z,111.53
2022-11-25T04:29:12.446Z,111.53
2022-11-25T04:30:12.448Z,111.53
2022-11-25T04:31:12.521Z,111.53
2022-11-25T04:32:12.447Z,111.53
2022-11-25T04:33:12.449Z,111.53
2022-11-25T04:34:12.450Z,111.53
2022-11-25T04:35:12.448Z,111.53
2022-11-25T04:36:12.442Z,111.53
2022-11-25T04:37:12.442Z,111.53
2022-11-25T04:38:12.470Z,111.53
2022-11-25T04:39:12.449Z,111.53
2022-11-25T04:40:12.446Z,111.53
2022-11-25T04:41:12.552Z,111.53
2022-11-25T04:42:12.438Z,111.53
2022-11-25T04:43:12.454Z,111.53
2022-11-25T04:44:12.443Z,111.53
2022-11-25T04:45:30.731Z,111.53
2022-11-25T04:46:14.487Z,111.53
2022-11-25T04:47:12.484Z,111.53
2022-11-25T04:48:12.456Z,111.53
2022-11-25T04:49:12.451Z,111.53
2022-11-25T04:50:12.457Z,111.53
2022-11-25T04:51:12.458Z,111.53
2022-11-25T04:52:12.451Z,111.53
2022-11-25T04:53:12.463Z,111.53
2022-11-25T04:54:17.243Z,111.53
2022-11-25T04:55:12.470Z,111.53
2022-11-25T04:56:12.461Z,111.53
2022-11-25T04:57:12.483Z,111.53
2022-11-25T04:58:12.450Z,111.53
2022-11-25T04:59:12.452Z,111.53
2022-11-25T05:00:12.467Z,111.53
2022-11-25T05:01:12.477Z,111.53
2022-11-25T05:02:12.490Z,111.53
2022-11-25T05:03:12.464Z,111.53
2022-11-25T05:04:12.463Z,111.53
2022-11-25T05:05:12.469Z,111.53
2022-11-25T05:06:12.460Z,111.53
2022-11-25T05:07:12.503Z,111.53
2022-11-25T05:08:12.469Z,111.53
2022-11-25T05:09:12.471Z,111.53
2022-11-25T05:10:12.464Z,111.53
2022-11-25T05:11:12.473Z,111.53
2022-11-25T05:12:12.462Z,111.53
2022-11-25T05:13:12.486Z,111.53
2022-11-25T05:14:12.468Z,111.53
2022-11-25T05:15:12.459Z,111.53
2022-11-25T05:16:12.509Z,111.53
2022-11-25T05:17:12.470Z,111.53
2022-11-25T05:18:12.466Z,122.82
2022-11-25T05:19:12.466Z,127.06
2022-11-25T05:20:12.473Z,184.94
2022-11-25T05:21:12.466Z,142.59
2022-11-25T05:22:12.467Z,144
2022-11-25T05:23:12.469Z,127.06
2022-11-25T05:24:12.468Z,127.06
2022-11-25T05:25:12.463Z,127.06
2022-11-25T05:26:12.461Z,127.06
2022-11-25T05:27:12.464Z,127.06
2022-11-25T05:28:12.460Z,127.06
2022-11-25T05:29:12.492Z,127.06
2022-11-25T05:30:12.469Z,127.06
2022-11-25T05:31:12.522Z,127.06
2022-11-25T05:32:12.477Z,127.06
2022-11-25T05:33:12.469Z,127.06
2022-11-25T05:34:12.478Z,127.06
2022-11-25T05:35:12.467Z,127.06
2022-11-25T05:36:12.472Z,127.06
2022-11-25T05:37:12.466Z,127.06
2022-11-25T05:38:12.469Z,127.06
2022-11-25T05:39:12.465Z,127.06
2022-11-25T05:40:12.466Z,127.06
2022-11-25T05:41:12.466Z,127.06
2022-11-25T05:42:12.472Z,127.06
2022-11-25T05:43:12.478Z,127.06
2022-11-25T05:44:12.490Z,127.06
2022-11-25T05:45:12.502Z,127.06
2022-11-25T05:46:12.515Z,127.06
2022-11-25T05:47:12.472Z,127.06
2022-11-25T05:48:12.485Z,127.06
2022-11-25T05:49:12.477Z,127.06
2022-11-25T05:50:12.496Z,127.06
2022-11-25T05:51:12.500Z,127.06
2022-11-25T05:52:12.489Z,127.06
2022-11-25T05:53:12.498Z,127.06
2022-11-25T05:54:12.490Z,103.06
2022-11-25T05:55:12.493Z,141.18
2022-11-25T05:56:12.490Z,160.94
2022-11-25T05:57:12.499Z,170.82
2022-11-25T05:58:12.494Z,175.06
2022-11-25T05:59:12.498Z,153.88
2022-11-25T06:00:12.504Z,158.12
2022-11-25T06:01:12.523Z,155.29
2022-11-25T06:02:12.544Z,139.76
2022-11-25T06:03:12.633Z,139.76
2022-11-25T06:04:12.504Z,139.76
2022-11-25T06:05:12.501Z,139.76
2022-11-25T06:06:12.506Z,139.76
2022-11-25T06:07:12.555Z,139.76
2022-11-25T06:08:12.522Z,139.76
2022-11-25T06:09:12.514Z,139.76
2022-11-25T06:10:12.514Z,139.76
2022-11-25T06:11:12.523Z,139.76
2022-11-25T06:12:12.520Z,139.76
2022-11-25T06:13:12.520Z,139.76
2022-11-25T06:14:12.529Z,139.76
2022-11-25T06:15:12.522Z,139.76
2022-11-25T06:16:12.596Z,139.76
2022-11-25T06:17:12.542Z,139.76
2022-11-25T06:18:12.530Z,139.76
2022-11-25T06:19:12.532Z,139.76
2022-11-25T06:20:12.538Z,139.76
2022-11-25T06:21:12.537Z,139.76
2022-11-25T06:22:12.548Z,139.76
2022-11-25T06:23:12.533Z,139.76
2022-11-25T06:24:12.543Z,139.76
2022-11-25T06:25:12.538Z,139.76
2022-11-25T06:26:12.535Z,139.76
2022-11-25T06:27:12.541Z,139.76
2022-11-25T06:28:13.428Z,139.76
2022-11-25T06:29:12.542Z,139.76
2022-11-25T06:30:12.548Z,139.76
2022-11-25T06:31:12.595Z,139.76
2022-11-25T06:32:12.553Z,139.76
2022-11-25T06:33:12.582Z,139.76
2022-11-25T06:34:12.553Z,142.59
2022-11-25T06:35:12.552Z,146.82
2022-11-25T06:36:12.552Z,136.94
2022-11-25T06:37:12.563Z,132.71
2022-11-25T06:38:12.561Z,141.18
2022-11-25T06:39:12.562Z,144
2022-11-25T06:40:12.556Z,145.41
2022-11-25T06:41:12.564Z,153.88
2022-11-25T06:42:12.565Z,152.47
2022-11-25T06:43:12.555Z,184.94
2022-11-25T06:44:12.561Z,166.59
2022-11-25T06:45:12.555Z,160.94
2022-11-25T06:46:12.628Z,134.12
2022-11-25T06:47:12.564Z,151.06
2022-11-25T06:48:12.564Z,132.71
2022-11-25T06:49:12.593Z,110.12
2022-11-25T06:50:12.556Z,110.12
2022-11-25T06:51:12.567Z,110.12
2022-11-25T06:52:12.560Z,141.18
2022-11-25T06:53:12.550Z,138.35
2022-11-25T06:54:12.561Z,144
2022-11-25T06:55:12.592Z,104.47
2022-11-25T06:56:12.569Z,104.47
2022-11-25T06:57:12.559Z,104.47
2022-11-25T06:58:34.692Z,104.47
2022-11-25T06:59:12.573Z,104.47
2022-11-25T07:00:12.573Z,104.47
2022-11-25T07:01:12.583Z,104.47
2022-11-25T07:02:12.567Z,104.47
2022-11-25T07:03:12.580Z,104.47
2022-11-25T07:04:12.578Z,104.47
2022-11-25T07:05:12.606Z,104.47
2022-11-25T07:06:12.583Z,104.47
2022-11-25T07:07:12.618Z,104.47
2022-11-25T07:08:12.577Z,104.47
2022-11-25T07:09:12.580Z,104.47
2022-11-25T07:10:12.578Z,104.47
2022-11-25T07:11:12.585Z,104.47
2022-11-25T07:12:12.594Z,104.47
2022-11-25T07:13:12.585Z,104.47
2022-11-25T07:14:12.584Z,104.47
2022-11-25T07:15:12.584Z,104.47
2022-11-25T07:16:12.702Z,104.47
2022-11-25T07:17:12.590Z,104.47
2022-11-25T07:18:12.588Z,104.47
2022-11-25T07:19:12.589Z,104.47
2022-11-25T07:20:12.592Z,104.47
2022-11-25T07:21:12.619Z,104.47
2022-11-25T07:22:12.600Z,104.47
2022-11-25T07:23:12.589Z,199.06
2022-11-25T07:24:12.591Z,176.47
2022-11-25T07:25:12.590Z,158.12
2022-11-25T07:26:12.592Z,158.12
2022-11-25T07:27:12.604Z,158.12
2022-11-25T07:28:12.608Z,158.12
2022-11-25T07:31:09.704Z,158.12
2022-11-25T07:31:31.458Z,158.12
2022-11-25T07:32:12.616Z,158.12
2022-11-25T07:33:12.628Z,158.12
2022-11-25T07:34:12.613Z,200.47
2022-11-25T07:35:12.621Z,193.41
2022-11-25T07:36:12.607Z,210.35
2022-11-25T07:37:12.640Z,186.35
2022-11-25T07:38:12.622Z,201.88
2022-11-25T07:39:12.622Z,223.06
2022-11-25T07:40:12.618Z,213.18
2022-11-25T07:41:12.613Z,214.59
2022-11-25T07:42:12.618Z,221.65
2022-11-25T07:43:12.630Z,208.94
2022-11-25T07:44:12.623Z,207.53
2022-11-25T07:45:12.636Z,211.76
2022-11-25T07:46:12.704Z,201.88
2022-11-25T07:47:12.627Z,199.06
2022-11-25T07:48:12.633Z,211.76
2022-11-25T07:49:12.623Z,210.35
2022-11-25T07:50:12.637Z,238.59
2022-11-25T07:51:12.636Z,223.06
2022-11-25T07:52:12.631Z,227.29
2022-11-25T07:53:12.657Z,230.12
2022-11-25T07:54:12.654Z,241.41
2022-11-25T07:55:12.641Z,227.29
2022-11-25T07:56:12.643Z,237.18
2022-11-25T07:57:12.637Z,221.65
2022-11-25T07:58:12.639Z,245.65
2022-11-25T07:59:12.647Z,207.53
2022-11-25T08:00:12.644Z,228.71
2022-11-25T08:01:12.684Z,216
2022-11-25T08:02:12.726Z,227.29
2022-11-25T08:03:12.726Z,200.47
2022-11-25T08:04:16.577Z,210.35
2022-11-25T08:05:12.647Z,244.24
2022-11-25T08:06:12.644Z,244.24
2022-11-25T08:07:12.684Z,244.24
2022-11-25T08:08:12.695Z,244.24
2022-11-25T08:09:12.680Z,244.24
2022-11-25T08:10:12.654Z,244.24
2022-11-25T08:11:12.656Z,265.41
2022-11-25T08:12:12.650Z,203.29
2022-11-25T08:13:12.653Z,230.12
2022-11-25T08:14:12.663Z,203.29
2022-11-25T08:15:12.649Z,227.29
2022-11-25T08:16:12.713Z,214.59
2022-11-25T08:17:12.659Z,190.59
2022-11-25T08:18:12.671Z,196.24
2022-11-25T08:19:12.664Z,232.94
2022-11-25T08:20:12.664Z,146.82
2022-11-25T08:21:12.670Z,210.35
2022-11-25T08:22:12.657Z,234.35
2022-11-25T08:23:12.667Z,241.41
2022-11-25T08:24:12.667Z,193.41
2022-11-25T08:25:12.692Z,189.18
2022-11-25T08:26:12.678Z,214.59
2022-11-25T08:27:12.672Z,218.82
2022-11-25T08:28:12.715Z,207.53
2022-11-25T08:29:12.671Z,232.94
2022-11-25T08:30:12.679Z,218.82
2022-11-25T08:31:12.762Z,242.82
2022-11-25T08:32:12.684Z,232.94
2022-11-25T08:33:12.680Z,235.76
2022-11-25T08:34:12.682Z,201.88
2022-11-25T08:35:12.683Z,201.88
2022-11-25T08:36:12.681Z,197.65
2022-11-25T08:37:12.688Z,197.65
2022-11-25T08:38:12.689Z,213.18
2022-11-25T08:39:29.348Z,213.18
2022-11-25T08:40:12.684Z,201.88
2022-11-25T08:41:12.716Z,213.18
2022-11-25T08:42:12.698Z,199.06
2022-11-25T08:43:12.697Z,207.53
2022-11-25T08:44:12.692Z,190.59
2022-11-25T08:45:12.695Z,208.94
2022-11-25T08:46:12.712Z,203.29
2022-11-25T08:47:12.698Z,217.41
2022-11-25T08:48:12.694Z,184.94
2022-11-25T08:49:12.691Z,163.76
2022-11-25T08:50:12.692Z,172.24
2022-11-25T08:51:12.705Z,192
2022-11-25T08:52:12.703Z,170.82
2022-11-25T08:53:12.694Z,206.12
2022-11-25T08:54:12.725Z,214.59
2022-11-25T08:55:12.703Z,139.76
2022-11-25T08:56:12.695Z,172.24
2022-11-25T08:57:12.733Z,189.18
2022-11-25T08:58:12.700Z,184.94
2022-11-25T08:59:12.690Z,138.35
2022-11-25T09:00:12.700Z,189.18
2022-11-25T09:01:12.797Z,159.53
2022-11-25T09:02:12.750Z,168
2022-11-25T09:03:12.740Z,155.29
2022-11-25T09:04:12.707Z,166.59
2022-11-25T09:05:12.699Z,206.12
2022-11-25T09:06:12.703Z,224.47
2022-11-25T09:07:12.742Z,208.94
2022-11-25T09:08:12.763Z,214.59
2022-11-25T09:09:12.707Z,213.18
2022-11-25T09:10:12.700Z,283.76
2022-11-25T09:11:12.802Z,182.12
2022-11-25T09:12:12.703Z,148.24
2022-11-25T09:13:12.729Z,148.24
2022-11-25T09:14:12.761Z,148.24
2022-11-25T09:15:12.705Z,203.29
2022-11-25T09:16:12.808Z,204.71
2022-11-25T09:17:12.731Z,192
2022-11-25T09:18:12.710Z,173.65
2022-11-25T09:19:12.703Z,225.88
2022-11-25T09:20:12.714Z,345.88
2022-11-25T09:21:12.714Z,345.88
2022-11-25T09:22:12.710Z,214.59
2022-11-25T09:23:12.716Z,172.24
2022-11-25T09:24:12.713Z,149.65
2022-11-25T09:25:12.714Z,149.65
2022-11-25T09:26:12.718Z,149.65
2022-11-25T09:27:12.717Z,149.65
2022-11-25T09:28:12.718Z,149.65
2022-11-25T09:29:12.739Z,149.65
2022-11-25T09:30:12.728Z,149.65
2022-11-25T09:31:12.771Z,149.65
2022-11-25T09:32:12.713Z,201.88
2022-11-25T09:33:12.722Z,187.76
2022-11-25T09:34:12.717Z,131.29
2022-11-25T09:35:12.721Z,101.65
2022-11-25T09:36:12.718Z,101.65
2022-11-25T09:37:12.720Z,189.18
2022-11-25T09:38:12.722Z,128.47
2022-11-25T09:39:12.720Z,142.59
2022-11-25T09:40:12.720Z,159.53
2022-11-25T09:41:12.722Z,194.82
2022-11-25T09:42:12.723Z,175.06
2022-11-25T09:43:12.732Z,158.12
2022-11-25T09:44:12.727Z,177.88
2022-11-25T09:45:12.755Z,208.94
2022-11-25T09:46:12.792Z,103.06
2022-11-25T09:47:12.729Z,142.59
2022-11-25T09:48:12.719Z,166.59
2022-11-25T09:49:12.732Z,110.12
2022-11-25T09:50:12.727Z,120
2022-11-25T09:51:12.736Z,120
2022-11-25T09:52:12.742Z,120
2022-11-25T09:53:12.745Z,120
2022-11-25T09:54:12.736Z,120
2022-11-25T09:55:12.747Z,120
2022-11-25T09:56:12.730Z,179.29
2022-11-25T09:57:12.747Z,207.53
2022-11-25T09:58:12.735Z,200.47
2022-11-25T09:59:12.763Z,216
2022-11-25T10:00:12.735Z,190.59
2022-11-25T10:01:12.800Z,159.53
2022-11-25T10:02:12.796Z,125.65
2022-11-25T10:03:12.794Z,125.65
2022-11-25T10:04:12.734Z,125.65
2022-11-25T10:05:12.729Z,125.65
2022-11-25T10:06:12.785Z,125.65
2022-11-25T10:07:12.726Z,125.65
2022-11-25T10:08:12.727Z,125.65
2022-11-25T10:09:12.727Z,125.65
2022-11-25T10:10:12.726Z,125.65
2022-11-25T10:11:12.730Z,131.29
2022-11-25T10:12:12.719Z,94.59
2022-11-25T10:13:12.736Z,94.59
2022-11-25T10:14:12.737Z,146.82
2022-11-25T10:15:12.731Z,84.71
2022-11-25T10:16:12.808Z,127.06
2022-11-25T10:17:12.753Z,124.24
2022-11-25T10:18:12.734Z,112.94
2022-11-25T10:19:12.737Z,179.29
2022-11-25T10:20:12.745Z,152.47
2022-11-25T10:21:12.742Z,141.18
2022-11-25T10:22:12.749Z,139.76
2022-11-25T10:23:12.738Z,204.71
2022-11-25T10:24:12.744Z,194.82
2022-11-25T10:25:12.749Z,216
2022-11-25T10:26:12.740Z,151.06
2022-11-25T10:27:12.752Z,125.65
2022-11-25T10:28:12.756Z,155.29
2022-11-25T10:29:12.760Z,160.94
2022-11-25T10:30:12.756Z,163.76
2022-11-25T10:31:12.796Z,168
2022-11-25T10:32:12.750Z,117.18
2022-11-25T10:33:12.794Z,98.82
2022-11-25T10:34:12.759Z,90.35
2022-11-25T10:35:12.761Z,146.82
2022-11-25T10:36:12.755Z,199.06
2022-11-25T10:37:12.765Z,177.88
2022-11-25T10:38:17.463Z,182.12
2022-11-25T10:39:12.766Z,182.12
2022-11-25T10:40:12.774Z,182.12
2022-11-25T10:41:12.764Z,182.12
2022-11-25T10:42:12.776Z,182.12
2022-11-25T10:43:12.757Z,182.12
2022-11-25T10:44:12.764Z,97.41
2022-11-25T10:45:12.762Z,97.41
2022-11-25T10:46:12.841Z,97.41
2022-11-25T10:47:14.516Z,97.41
2022-11-25T10:48:12.761Z,97.41
2022-11-25T10:49:12.790Z,138.35
2022-11-25T10:50:12.770Z,114.35
2022-11-25T10:51:12.768Z,114.35
2022-11-25T10:52:12.770Z,114.35
2022-11-25T10:53:12.770Z,114.35
2022-11-25T10:54:12.780Z,114.35
2022-11-25T10:55:12.769Z,151.06
2022-11-25T10:56:12.776Z,144
2022-11-25T10:57:12.766Z,136.94
2022-11-25T10:58:12.777Z,131.29
2022-11-25T10:59:12.766Z,163.76
2022-11-25T11:00:16.957Z,224.47
2022-11-25T11:01:12.775Z,269.65
2022-11-25T11:02:12.815Z,242.82
2022-11-25T11:03:12.867Z,216
2022-11-25T11:04:12.783Z,184.94
2022-11-25T11:05:12.801Z,121.41
2022-11-25T11:06:12.773Z,121.41
2022-11-25T11:07:12.828Z,193.41
2022-11-25T11:08:12.782Z,248.47
2022-11-25T11:09:12.785Z,235.76
2022-11-25T11:10:12.779Z,227.29
2022-11-25T11:11:12.785Z,183.53
2022-11-25T11:12:12.782Z,235.76
2022-11-25T11:13:12.786Z,275.29
2022-11-25T11:14:12.783Z,264
2022-11-25T11:15:12.792Z,240
2022-11-25T11:16:12.864Z,230.12
2022-11-25T11:17:12.795Z,269.65
2022-11-25T11:18:12.782Z,248.47
2022-11-25T11:19:12.805Z,296.47
2022-11-25T11:20:12.785Z,266.82
2022-11-25T11:21:12.817Z,306.35
2022-11-25T11:22:12.788Z,168
2022-11-25T11:23:12.794Z,142.59
2022-11-25T11:24:12.789Z,142.59
2022-11-25T11:25:12.802Z,142.59
2022-11-25T11:26:12.793Z,142.59
2022-11-25T11:27:12.795Z,142.59
2022-11-25T11:28:12.796Z,142.59
2022-11-25T11:29:14.261Z,142.59
2022-11-25T11:30:12.798Z,142.59
2022-11-25T11:31:12.869Z,142.59
2022-11-25T11:32:12.800Z,142.59
2022-11-25T11:33:12.798Z,142.59
2022-11-25T11:34:12.802Z,142.59
2022-11-25T11:35:12.808Z,142.59
2022-11-25T11:36:12.798Z,136.94
2022-11-25T11:37:12.823Z,87.53
2022-11-25T11:38:12.810Z,87.53
2022-11-25T11:39:12.814Z,87.53
2022-11-25T11:40:12.809Z,87.53
2022-11-25T11:41:12.802Z,87.53
2022-11-25T11:42:12.809Z,87.53
2022-11-25T11:43:12.818Z,87.53
2022-11-25T11:44:12.811Z,145.41
2022-11-25T11:45:12.803Z,94.59
2022-11-25T11:46:12.811Z,94.59
2022-11-25T11:47:12.812Z,94.59
2022-11-25T11:48:12.824Z,94.59
2022-11-25T11:49:12.814Z,94.59
2022-11-25T11:50:12.813Z,94.59
2022-11-25T11:51:12.809Z,94.59
2022-11-25T11:52:12.815Z,94.59
2022-11-25T11:53:12.852Z,94.59
2022-11-25T11:54:12.818Z,94.59
2022-11-25T11:55:12.813Z,94.59
2022-11-25T11:56:34.027Z,94.59
2022-11-25T11:57:12.823Z,151.06
2022-11-25T11:58:12.818Z,153.88
2022-11-25T11:59:12.816Z,156.71
2022-11-25T12:00:12.893Z,138.35
2022-11-25T12:01:12.839Z,127.06
2022-11-25T12:02:12.893Z,127.06
2022-11-25T12:03:12.914Z,127.06
2022-11-25T12:04:12.834Z,127.06
2022-11-25T12:05:12.827Z,127.06
2022-11-25T12:06:12.834Z,127.06
2022-11-25T12:07:12.845Z,127.06
2022-11-25T12:08:12.834Z,127.06
2022-11-25T12:09:12.854Z,127.06
2022-11-25T12:10:12.833Z,127.06
2022-11-25T12:11:12.844Z,127.06
2022-11-25T12:12:12.828Z,127.06
2022-11-25T12:13:12.838Z,127.06
2022-11-25T12:14:12.829Z,127.06
2022-11-25T12:15:12.838Z,127.06
2022-11-25T12:16:12.870Z,127.06
2022-11-25T12:17:12.836Z,127.06
2022-11-25T12:18:12.828Z,127.06
2022-11-25T12:19:12.842Z,127.06
2022-11-25T12:20:12.841Z,127.06
2022-11-25T12:21:12.839Z,127.06
2022-11-25T12:22:12.836Z,127.06
2022-11-25T12:23:12.844Z,127.06
2022-11-25T12:24:12.838Z,127.06
2022-11-25T12:25:12.863Z,127.06
2022-11-25T12:26:12.831Z,127.06
2022-11-25T12:27:12.830Z,127.06
2022-11-25T12:28:12.839Z,127.06
2022-11-25T12:29:12.844Z,127.06
2022-11-25T12:30:12.840Z,127.06
2022-11-25T12:31:12.876Z,127.06
2022-11-25T12:32:12.839Z,127.06
2022-11-25T12:33:12.845Z,127.06
2022-11-25T12:34:12.844Z,127.06
2022-11-25T12:35:12.847Z,127.06
2022-11-25T12:36:12.847Z,127.06